Time;durP1;ratioP1;P1;durP2;ratioP2;P2;SDS_P1;SDS_P2;PMS_P1;PMS_P2;Temp;Humidity;BMP_temperature;BMP_pressure;BME280_temperature;BME280_humidity;BME280_pressure;Samples;Min_cycle;Max_cycle;Signal;HPM_P1;HPM_P2
2022/09/30 00:01:08;;;;;;;26.38;22.15;;;;;;;9.00;100.00;100476.66;5021174;28;20212;-47
2022/09/30 00:03:35;;;;;;;27.73;22.55;;;;;;;9.02;100.00;100477.47;5021352;28;20243;-49
2022/09/30 00:06:02;;;;;;;27.27;22.33;;;;;;;9.02;100.00;100479.28;5016449;28;20203;-49
2022/09/30 00:08:28;;;;;;;29.75;23.38;;;;;;;8.98;100.00;100478.50;5015124;28;20531;-48
2022/09/30 00:11:04;;;;;;;30.63;23.77;;;;;;;8.98;100.00;100472.28;5014010;28;20277;-50
2022/09/30 00:13:31;;;;;;;29.50;23.20;;;;;;;8.98;100.00;100478.50;5010887;28;20544;-50
2022/09/30 00:15:57;;;;;;;26.23;22.23;;;;;;;8.97;100.00;100470.56;5017060;28;20180;-49
2022/09/30 00:18:22;;;;;;;27.77;23.63;;;;;;;8.97;100.00;100468.75;5020732;28;20568;-47
2022/09/30 00:20:48;;;;;;;27.05;22.98;;;;;;;8.97;100.00;100465.22;5020781;28;20535;-49
2022/09/30 00:23:13;;;;;;;27.50;23.92;;;;;;;8.95;100.00;100467.06;5017634;28;20207;-50
2022/09/30 00:25:38;;;;;;;25.10;22.25;;;;;;;8.97;100.00;100465.22;5024374;28;20310;-48
2022/09/30 00:28:06;;;;;;;30.67;24.20;;;;;;;8.92;100.00;100462.72;5024160;28;20318;-49
2022/09/30 00:30:33;;;;;;;29.38;22.77;;;;;;;8.89;100.00;100472.63;5013818;28;20201;-47
2022/09/30 00:32:59;;;;;;;28.25;23.05;;;;;;;8.91;100.00;100468.13;5012404;28;20176;-50
2022/09/30 00:35:25;;;;;;;30.00;23.92;;;;;;;8.91;100.00;100474.31;5015461;28;20199;-49
2022/09/30 00:37:50;;;;;;;27.48;23.63;;;;;;;8.89;100.00;100470.84;5021365;28;20188;-47
2022/09/30 00:40:18;;;;;;;27.55;22.38;;;;;;;8.92;100.00;100481.44;5021721;28;20944;-47
2022/09/30 00:42:45;;;;;;;24.65;21.10;;;;;;;8.95;100.00;100483.09;5020357;28;20286;-47
2022/09/30 00:45:12;;;;;;;27.33;23.30;;;;;;;8.90;100.00;100474.38;5015479;28;20193;-48
2022/09/30 00:47:53;;;;;;;29.63;24.02;;;;;;;8.90;100.00;100485.94;5011465;28;20659;-47
2022/09/30 00:50:25;;;;;;;26.77;23.00;;;;;;;8.85;100.00;100469.19;5020010;28;20216;-46
2022/09/30 00:53:07;;;;;;;27.42;23.02;;;;;;;8.86;100.00;100474.50;5015778;28;20176;-47
2022/09/30 00:55:39;;;;;;;33.10;25.10;;;;;;;8.80;100.00;100479.19;5019980;28;20180;-48
2022/09/30 00:58:08;;;;;;;30.35;25.05;;;;;;;8.79;100.00;100478.34;5018134;28;20184;-46
2022/09/30 01:00:34;;;;;;;28.67;25.58;;;;;;;8.79;100.00;100485.44;5020111;28;20217;-48
2022/09/30 01:03:01;;;;;;;26.83;23.70;;;;;;;8.83;100.00;100485.31;5013958;28;20655;-47
2022/09/30 01:05:26;;;;;;;32.38;26.05;;;;;;;8.83;100.00;100489.75;5021296;28;20594;-49
2022/09/30 01:07:57;;;;;;;32.60;25.95;;;;;;;8.83;100.00;100498.66;5015040;28;20180;-46
2022/09/30 01:10:23;;;;;;;36.00;25.92;;;;;;;8.81;100.00;100496.94;5020539;28;20341;-47
2022/09/30 01:12:49;;;;;;;36.20;28.08;;;;;;;8.77;100.00;100492.69;5022080;28;20210;-46
2022/09/30 01:15:14;;;;;;;30.95;26.35;;;;;;;8.77;100.00;100493.53;5020735;28;20233;-45
2022/09/30 01:18:07;;;;;;;32.72;27.23;;;;;;;8.75;100.00;100499.88;5017900;28;20181;-47
2022/09/30 01:20:54;;;;;;;32.38;25.63;;;;;;;8.79;100.00;100496.13;5024124;28;20216;-47
2022/09/30 01:23:36;;;;;;;36.90;27.80;;;;;;;8.78;100.00;100508.63;5012861;28;20307;-48
2022/09/30 01:26:14;;;;;;;34.90;28.13;;;;;;;8.80;100.00;100503.25;5018633;28;20203;-48
2022/09/30 01:28:54;;;;;;;28.85;24.88;;;;;;;8.84;100.00;100497.72;5016943;28;20215;-47
2022/09/30 01:31:58;;;;;;;37.55;27.60;;;;;;;8.79;100.00;100504.16;5025124;28;20199;-47
2022/09/30 01:34:58;;;;;;;32.58;26.20;;;;;;;8.78;100.00;100510.44;5017665;28;20919;-47
2022/09/30 01:37:53;;;;;;;34.00;28.50;;;;;;;8.78;100.00;100511.28;5023049;28;20187;-45
2022/09/30 01:40:31;;;;;;;29.48;25.15;;;;;;;8.86;100.00;100513.72;5001353;28;20235;-47
2022/09/30 01:43:10;;;;;;;31.73;26.42;;;;;;;8.83;100.00;100516.47;5019227;28;20199;-47
2022/09/30 01:45:50;;;;;;;35.08;29.17;;;;;;;8.77;100.00;100509.56;5019261;28;20191;-47
2022/09/30 01:48:32;;;;;;;33.35;27.85;;;;;;;8.76;100.00;100512.28;5017431;28;20176;-47
2022/09/30 01:51:03;;;;;;;33.72;27.77;;;;;;;8.81;100.00;100515.66;5018834;28;20200;-47
2022/09/30 01:53:54;;;;;;;31.42;25.20;;;;;;;8.85;100.00;100523.53;5018850;28;20164;-47
2022/09/30 01:56:30;;;;;;;32.58;27.25;;;;;;;8.80;100.00;100503.25;5018009;28;20203;-49
2022/09/30 01:59:10;;;;;;;33.72;27.90;;;;;;;8.80;100.00;100504.09;5018118;28;20654;-47
2022/09/30 02:01:41;;;;;;;33.72;29.65;;;;;;;8.75;100.00;100519.44;5002539;28;20226;-47
2022/09/30 02:04:14;;;;;;;39.50;30.65;;;;;;;8.75;100.00;100515.91;5012762;28;20639;-48
2022/09/30 02:06:45;;;;;;;36.35;30.67;;;;;;;8.75;100.00;100518.56;5014596;28;20218;-49
2022/09/30 02:09:15;;;;;;;38.65;30.02;;;;;;;8.75;100.00;100518.56;5021160;28;20187;-47
2022/09/30 02:11:41;;;;;;;34.70;29.40;;;;;;;8.76;100.00;100520.28;5013348;28;20295;-49
2022/09/30 02:14:40;;;;;;;36.17;30.35;;;;;;;8.74;100.00;100523.00;5014816;28;20223;-47
2022/09/30 02:17:22;;;;;;;37.67;30.02;;;;;;;8.73;100.00;100515.94;5011620;28;20193;-48
2022/09/30 02:20:00;;;;;;;37.65;30.20;;;;;;;8.77;100.00;100532.75;5013178;28;20201;-49
2022/09/30 02:22:32;;;;;;;38.63;30.70;;;;;;;8.78;100.00;100523.78;5017886;28;20216;-47
2022/09/30 02:25:04;;;;;;;40.33;31.02;;;;;;;8.79;100.00;100531.75;5016299;28;20553;-47
2022/09/30 02:27:39;;;;;;;35.70;29.05;;;;;;;8.76;100.00;100539.00;5016618;28;20223;-48
2022/09/30 02:30:08;;;;;;;38.75;32.00;;;;;;;8.77;100.00;100527.41;5017922;28;20199;-48
2022/09/30 02:32:38;;;;;;;41.08;30.95;;;;;;;8.74;100.00;100539.03;5012099;28;20227;-46
2022/09/30 02:35:10;;;;;;;38.08;30.02;;;;;;;8.76;100.00;100531.84;5014059;28;20227;-48
2022/09/30 02:37:49;;;;;;;38.47;29.70;;;;;;;8.80;100.00;100544.16;5013007;28;20180;-49
2022/09/30 02:40:21;;;;;;;33.75;29.60;;;;;;;8.81;100.00;100545.03;5013651;28;20239;-47
2022/09/30 02:42:47;;;;;;;33.03;29.10;;;;;;;8.83;100.00;100540.50;5021954;28;20209;-47
2022/09/30 02:45:18;;;;;;;35.78;29.45;;;;;;;8.81;100.00;100543.25;5023203;28;20211;-47
2022/09/30 02:47:56;;;;;;;35.35;29.88;;;;;;;8.81;100.00;100548.59;5016961;28;20722;-46
2022/09/30 02:50:41;;;;;;;34.97;29.20;;;;;;;8.86;100.00;100543.09;5011045;28;20221;-47
2022/09/30 02:53:33;;;;;;;37.42;29.90;;;;;;;8.80;100.00;100536.16;5018498;28;20200;-48
2022/09/30 02:56:08;;;;;;;33.97;28.40;;;;;;;8.82;100.00;100546.78;5011547;28;20677;-49
2022/09/30 02:58:38;;;;;;;38.20;29.08;;;;;;;8.84;100.00;100544.94;5021876;28;20378;-47
2022/09/30 03:01:07;;;;;;;35.42;29.90;;;;;;;8.84;100.00;100550.28;5032105;28;20200;-48
2022/09/30 03:03:38;;;;;;;36.25;29.40;;;;;;;8.84;100.00;100553.81;5021965;28;20208;-46
2022/09/30 03:06:04;;;;;;;37.47;29.75;;;;;;;8.82;100.00;100555.69;5026642;28;20179;-48
2022/09/30 03:08:29;;;;;;;39.70;30.27;;;;;;;8.83;100.00;100551.19;5020179;28;20181;-47
2022/09/30 03:10:55;;;;;;;36.70;28.73;;;;;;;8.84;100.00;100560.97;5018308;28;20283;-47
2022/09/30 03:13:43;;;;;;;38.10;31.10;;;;;;;8.82;100.00;100558.34;5021207;28;20165;-47
2022/09/30 03:16:46;;;;;;;33.92;29.00;;;;;;;8.80;100.00;100557.53;5011471;28;20188;-48
2022/09/30 03:19:42;;;;;;;35.35;29.67;;;;;;;8.82;100.00;100565.50;5011729;28;20176;-48
2022/09/30 03:22:32;;;;;;;35.83;29.10;;;;;;;8.78;100.00;100554.03;5013372;28;20180;-48
2022/09/30 03:25:31;;;;;;;34.00;29.08;;;;;;;8.79;100.00;100558.47;5013501;28;20202;-47
2022/09/30 03:28:21;;;;;;;34.78;28.35;;;;;;;8.82;100.00;100561.00;5015059;28;20197;-47
2022/09/30 03:31:02;;;;;;;37.50;28.05;;;;;;;8.76;100.00;100571.03;5011152;28;20715;-46
2022/09/30 03:33:51;;;;;;;32.17;27.27;;;;;;;8.78;100.00;100569.19;5011100;28;20185;-47
2022/09/30 03:36:33;;;;;;;36.45;28.10;;;;;;;8.78;100.00;100577.22;5014313;28;20189;-48
2022/09/30 03:39:36;;;;;;;37.78;28.98;;;;;;;8.77;100.00;100580.81;5012197;28;20240;-47
2022/09/30 03:42:08;;;;;;;33.53;27.52;;;;;;;8.80;100.00;100581.56;5013604;28;20176;-48
2022/09/30 03:44:57;;;;;;;32.38;27.88;;;;;;;8.83;100.00;100583.25;5010991;28;20197;-48
2022/09/30 03:47:26;;;;;;;34.38;26.98;;;;;;;8.75;100.00;100582.69;5013863;28;20235;-46
2022/09/30 03:49:57;;;;;;;31.42;25.85;;;;;;;8.77;100.00;100588.84;5017027;28;20220;-47
2022/09/30 03:52:25;;;;;;;33.70;25.75;;;;;;;8.80;100.00;100586.03;5013112;28;20187;-49
2022/09/30 03:54:57;;;;;;;27.60;24.45;;;;;;;8.76;100.00;100595.09;5017085;28;20631;-48
2022/09/30 03:57:28;;;;;;;29.73;25.75;;;;;;;8.74;100.00;100586.25;5011982;28;20316;-48
2022/09/30 03:59:57;;;;;;;30.30;26.38;;;;;;;8.75;100.00;100588.00;5025277;28;20630;-47
2022/09/30 04:02:24;;;;;;;30.60;26.38;;;;;;;8.76;100.00;100592.41;5014641;28;20219;-47
2022/09/30 04:04:49;;;;;;;31.63;25.67;;;;;;;8.76;100.00;100603.97;5020509;28;20550;-49
2022/09/30 04:07:15;;;;;;;29.67;25.75;;;;;;;8.75;100.00;100598.69;5015589;28;20295;-47
2022/09/30 04:09:40;;;;;;;31.48;26.10;;;;;;;8.73;100.00;100598.75;5018996;28;20188;-47
2022/09/30 04:12:07;;;;;;;30.00;24.65;;;;;;;8.73;100.00;100611.22;5016254;28;20184;-47
2022/09/30 04:14:33;;;;;;;33.10;24.85;;;;;;;8.73;100.00;100603.22;5009107;28;20252;-47
2022/09/30 04:16:58;;;;;;;31.52;25.98;;;;;;;8.70;100.00;100601.50;5012304;28;20256;-48
2022/09/30 04:19:24;;;;;;;34.42;26.00;;;;;;;8.73;100.00;100605.88;5013259;28;20184;-47
2022/09/30 04:21:51;;;;;;;31.45;26.70;;;;;;;8.75;100.00;100604.03;5025492;28;20240;-46
2022/09/30 04:24:17;;;;;;;32.55;26.13;;;;;;;8.72;100.00;100613.00;5014571;28;20258;-46
2022/09/30 04:26:43;;;;;;;31.67;26.45;;;;;;;8.79;100.00;100611.91;5014795;28;20185;-48
2022/09/30 04:29:08;;;;;;;32.65;25.95;;;;;;;8.75;100.00;100620.94;5013598;28;20180;-47
2022/09/30 04:31:34;;;;;;;34.40;26.13;;;;;;;8.75;100.00;100622.75;5025254;28;20345;-47
2022/09/30 04:33:59;;;;;;;33.10;26.30;;;;;;;8.74;100.00;100623.66;5015067;28;20704;-47
2022/09/30 04:36:25;;;;;;;34.88;27.08;;;;;;;8.72;100.00;100625.50;5020679;28;20176;-46
2022/09/30 04:38:51;;;;;;;36.60;28.45;;;;;;;8.73;100.00;100627.25;5014652;28;20172;-48
2022/09/30 04:41:17;;;;;;;32.10;26.98;;;;;;;8.72;100.00;100626.34;5015146;28;20307;-47
2022/09/30 04:43:45;;;;;;;34.80;28.38;;;;;;;8.76;100.00;100629.81;5013794;28;20272;-47
2022/09/30 04:46:19;;;;;;;34.90;27.58;;;;;;;8.73;100.00;100624.59;5015523;28;20208;-47
2022/09/30 04:48:46;;;;;;;33.75;27.55;;;;;;;8.74;100.00;100637.88;5014548;28;20196;-49
2022/09/30 04:51:17;;;;;;;39.35;28.60;;;;;;;8.76;100.00;100635.16;5022472;28;20691;-46
2022/09/30 04:53:43;;;;;;;32.15;26.55;;;;;;;8.86;100.00;100648.16;5018091;28;20191;-46
2022/09/30 04:56:09;;;;;;;32.85;26.23;;;;;;;8.79;100.00;100641.28;5019278;28;20660;-48
2022/09/30 04:58:35;;;;;;;37.28;28.38;;;;;;;8.82;100.00;100649.19;5016935;28;20239;-47
2022/09/30 05:01:06;;;;;;;34.42;27.92;;;;;;;8.85;100.00;100651.75;5018466;28;20200;-48
2022/09/30 05:03:32;;;;;;;38.88;28.70;;;;;;;8.81;100.00;100646.53;5014679;28;20192;-48
2022/09/30 05:05:57;;;;;;;35.85;28.73;;;;;;;8.81;100.00;100651.88;5014745;28;20187;-47
2022/09/30 05:08:24;;;;;;;37.60;28.73;;;;;;;8.80;100.00;100655.50;5018666;28;20323;-48
2022/09/30 05:10:57;;;;;;;37.70;28.08;;;;;;;8.82;100.00;100650.97;5026396;28;20204;-48
2022/09/30 05:13:24;;;;;;;40.50;29.52;;;;;;;8.80;100.00;100655.50;5018326;28;20227;-47
2022/09/30 05:15:50;;;;;;;35.97;28.90;;;;;;;8.82;100.00;100657.19;5016931;28;20176;-47
2022/09/30 05:18:18;;;;;;;37.90;29.10;;;;;;;8.82;100.00;100664.34;5018693;28;20196;-47
2022/09/30 05:20:43;;;;;;;39.08;29.65;;;;;;;8.81;100.00;100662.56;5018745;28;20218;-47
2022/09/30 05:23:09;;;;;;;35.40;28.75;;;;;;;8.82;100.00;100664.34;5025324;28;20200;-49
2022/09/30 05:25:34;;;;;;;36.85;29.02;;;;;;;8.84;100.00;100666.03;5021586;28;20172;-47
2022/09/30 05:28:00;;;;;;;38.95;30.55;;;;;;;8.82;100.00;100667.00;5015640;28;20175;-48
2022/09/30 05:30:27;;;;;;;35.88;29.23;;;;;;;8.81;100.00;100659.91;5021105;28;20221;-47
2022/09/30 05:32:52;;;;;;;35.63;29.58;;;;;;;8.84;100.00;100665.16;5018237;28;20215;-47
2022/09/30 05:35:18;;;;;;;36.85;29.60;;;;;;;8.80;100.00;100660.84;5015547;28;20652;-48
2022/09/30 05:37:43;;;;;;;36.10;28.65;;;;;;;8.83;100.00;100661.63;5025099;28;20184;-49
2022/09/30 05:40:09;;;;;;;32.80;27.17;;;;;;;8.83;100.00;100669.63;5020524;28;20754;-49
2022/09/30 05:42:34;;;;;;;37.80;30.20;;;;;;;8.82;100.00;100673.22;5016396;28;20212;-47
2022/09/30 05:45:01;;;;;;;38.63;29.02;;;;;;;8.81;100.00;100673.25;5021099;28;20318;-51
2022/09/30 05:47:26;;;;;;;40.05;30.42;;;;;;;8.83;100.00;100671.41;5018719;28;20219;-48
2022/09/30 05:49:52;;;;;;;38.53;30.05;;;;;;;8.82;100.00;100667.88;5014390;28;20394;-49
2022/09/30 05:52:18;;;;;;;35.03;28.27;;;;;;;8.90;100.00;100678.31;5012664;28;20927;-47
2022/09/30 05:54:44;;;;;;;37.17;29.50;;;;;;;8.84;100.00;100678.53;5020654;28;20180;-49
2022/09/30 05:57:09;;;;;;;37.35;30.35;;;;;;;8.84;100.00;100681.19;5019284;28;20190;-49
2022/09/30 05:59:36;;;;;;;32.28;27.63;;;;;;;8.85;100.00;100688.25;5017164;28;20193;-49
2022/09/30 06:02:02;;;;;;;38.05;27.98;;;;;;;8.89;100.00;100689.91;5017800;28;20180;-49
2022/09/30 06:04:28;;;;;;;29.58;24.70;;;;;;;8.93;100.00;100685.34;5011822;28;20184;-45
2022/09/30 06:06:53;;;;;;;34.50;27.98;;;;;;;8.90;100.00;100683.66;5012129;28;20168;-44
2022/09/30 06:09:19;;;;;;;32.83;26.95;;;;;;;8.95;100.00;100697.72;5012000;28;20739;-44
2022/09/30 06:11:44;;;;;;;30.92;26.52;;;;;;;8.97;100.00;100689.66;5011967;28;20188;-45
2022/09/30 06:14:10;;;;;;;30.45;26.20;;;;;;;8.98;100.00;100691.41;5011865;28;20169;-43
2022/09/30 06:16:35;;;;;;;35.03;27.15;;;;;;;8.92;100.00;100692.50;5011959;28;20833;-44
2022/09/30 06:19:00;;;;;;;34.10;24.90;;;;;;;8.95;100.00;100695.06;5010591;28;20183;-46
2022/09/30 06:21:27;;;;;;;33.65;28.48;;;;;;;8.97;100.00;100697.69;5011422;28;20275;-49
2022/09/30 06:23:53;;;;;;;32.92;25.40;;;;;;;9.01;100.00;100692.19;5010488;28;20200;-44
2022/09/30 06:26:19;;;;;;;33.53;27.55;;;;;;;8.96;100.00;100699.47;5011831;28;20534;-44
2022/09/30 06:28:45;;;;;;;32.55;26.02;;;;;;;8.97;100.00;100695.88;5011462;28;20533;-47
2022/09/30 06:31:10;;;;;;;30.73;25.13;;;;;;;8.96;100.00;100703.94;5011901;28;20676;-44
2022/09/30 06:33:36;;;;;;;33.15;26.85;;;;;;;8.99;100.00;100694.03;5011619;28;20216;-45
2022/09/30 06:36:03;;;;;;;28.63;25.00;;;;;;;9.06;100.00;100695.56;5011885;28;20165;-44
2022/09/30 06:38:30;;;;;;;30.88;24.88;;;;;;;9.05;100.00;100700.94;5011531;28;20177;-43
2022/09/30 06:40:58;;;;;;;34.30;27.83;;;;;;;9.07;100.00;100697.31;5011443;28;20271;-45
2022/09/30 06:43:24;;;;;;;29.35;26.13;;;;;;;9.11;100.00;100702.56;5011683;28;20193;-46
2022/09/30 06:45:50;;;;;;;33.15;28.33;;;;;;;9.13;100.00;100703.38;5009421;28;20533;-45
2022/09/30 06:48:16;;;;;;;35.15;26.63;;;;;;;9.14;100.00;100702.44;5011670;28;20189;-45
2022/09/30 06:50:41;;;;;;;33.33;27.95;;;;;;;9.18;100.00;100714.78;5011374;28;20201;-43
2022/09/30 06:53:07;;;;;;;37.15;29.45;;;;;;;9.20;100.00;100711.13;5011372;28;20585;-43
2022/09/30 06:55:38;;;;;;;38.33;29.80;;;;;;;9.20;100.00;100715.59;5010079;28;20184;-43
2022/09/30 06:58:07;;;;;;;40.53;29.23;;;;;;;9.18;100.00;100717.44;5010321;28;20220;-45
2022/09/30 07:00:32;;;;;;;34.22;28.95;;;;;;;9.25;100.00;100719.00;5011445;28;20275;-49
2022/09/30 07:02:58;;;;;;;37.63;29.10;;;;;;;9.17;100.00;100719.25;5011359;28;20284;-46
2022/09/30 07:05:25;;;;;;;34.28;29.25;;;;;;;9.17;100.00;100724.59;5011229;28;20188;-43
2022/09/30 07:07:51;;;;;;;38.13;30.63;;;;;;;9.10;100.00;100723.06;5011533;28;20320;-46
2022/09/30 07:10:17;;;;;;;37.88;31.08;;;;;;;9.14;100.00;100731.84;5010515;28;20604;-50
2022/09/30 07:12:43;;;;;;;36.70;31.05;;;;;;;9.14;100.00;100730.06;5011049;28;20160;-49
2022/09/30 07:15:09;;;;;;;43.35;32.25;;;;;;;9.17;100.00;100726.41;5011141;28;20551;-48
2022/09/30 07:17:34;;;;;;;39.88;32.25;;;;;;;9.17;100.00;100727.28;5011218;28;20267;-44
2022/09/30 07:20:00;;;;;;;39.83;30.52;;;;;;;9.24;100.00;100725.25;5010956;28;20316;-44
2022/09/30 07:22:29;;;;;;;37.72;31.10;;;;;;;9.30;100.00;100724.19;5010787;28;20543;-49
2022/09/30 07:24:59;;;;;;;37.17;30.27;;;;;;;9.31;100.00;100732.13;5009778;28;20191;-44
2022/09/30 07:27:26;;;;;;;36.47;30.33;;;;;;;9.33;100.00;100738.31;5011247;28;20169;-44
2022/09/30 07:29:53;;;;;;;34.40;29.90;;;;;;;9.44;100.00;100730.78;5010796;28;20326;-46
2022/09/30 07:32:20;;;;;;;34.78;28.88;;;;;;;9.42;100.00;100730.00;5010769;28;20173;-47
2022/09/30 07:34:45;;;;;;;33.05;27.30;;;;;;;9.42;100.00;100727.31;5010772;28;20691;-45
2022/09/30 07:37:13;;;;;;;32.60;27.10;;;;;;;9.45;100.00;100734.34;5010987;28;20157;-43
2022/09/30 07:39:41;;;;;;;30.27;24.63;;;;;;;9.57;100.00;100738.38;5010819;28;20534;-45
2022/09/30 07:42:06;;;;;;;29.75;26.63;;;;;;;9.48;100.00;100737.75;5010629;28;20204;-47
2022/09/30 07:44:32;;;;;;;27.65;24.73;;;;;;;9.55;100.00;100735.75;5010783;28;20551;-43
2022/09/30 07:46:58;;;;;;;29.60;25.63;;;;;;;9.55;100.00;100730.41;5010635;28;20184;-47
2022/09/30 07:49:24;;;;;;;28.70;25.13;;;;;;;9.61;100.00;100723.97;5013448;28;20197;-46
2022/09/30 07:51:55;;;;;;;27.92;24.27;;;;;;;9.67;100.00;100723.75;5015480;28;20196;-43
2022/09/30 07:54:25;;;;;;;27.95;24.33;;;;;;;9.78;100.00;100728.72;5013748;28;20636;-41
2022/09/30 07:56:51;;;;;;;31.83;26.17;;;;;;;9.71;100.00;100720.03;5019021;28;20181;-43
2022/09/30 07:59:17;;;;;;;28.05;24.40;;;;;;;9.76;100.00;100728.75;5021653;28;20686;-42
2022/09/30 08:01:43;;;;;;;28.40;24.23;;;;;;;9.74;100.00;100730.63;5022405;28;20231;-44
2022/09/30 08:04:11;;;;;;;27.08;24.25;;;;;;;9.88;100.00;100722.97;5017527;28;20564;-43
2022/09/30 08:06:39;;;;;;;26.75;24.05;;;;;;;10.05;100.00;100726.81;5019192;28;20259;-45
2022/09/30 08:09:05;;;;;;;26.00;23.27;;;;;;;9.83;100.00;100735.63;5015293;28;20184;-44
2022/09/30 08:11:35;;;;;;;24.38;21.83;;;;;;;9.90;100.00;100742.53;5020394;28;20259;-42
2022/09/30 08:14:01;;;;;;;23.67;21.17;;;;;;;9.88;100.00;100739.03;5017386;28;20173;-41
2022/09/30 08:16:26;;;;;;;24.88;22.38;;;;;;;9.89;100.00;100746.13;5020035;28;20323;-43
2022/09/30 08:18:56;;;;;;;23.58;21.27;;;;;;;9.85;100.00;100739.13;5019159;28;20204;-43
2022/09/30 08:21:23;;;;;;;22.27;20.08;;;;;;;9.95;100.00;100745.03;5018026;28;20283;-43
2022/09/30 08:23:48;;;;;;;23.73;21.23;;;;;;;9.99;100.00;100735.06;5022573;28;20208;-41
2022/09/30 08:26:15;;;;;;;22.33;20.10;;;;;;;10.00;100.00;100753.75;5020329;28;20548;-41
2022/09/30 08:28:42;;;;;;;31.67;28.65;;;;;;;10.02;100.00;100749.22;5143110;22;20223;-91
2022/09/30 08:31:11;;;;;;;22.35;20.25;;;;;;;10.02;100.00;100748.34;5022121;28;20229;-88
2022/09/30 08:33:38;;;;;;;24.15;21.80;;;;;;;10.05;100.00;100749.09;5016379;28;20224;-89
2022/09/30 08:36:12;;;;;;;23.95;21.50;;;;;;;9.96;100.00;100744.09;5022113;28;20195;-89
2022/09/30 08:38:38;;;;;;;22.55;20.27;;;;;;;10.07;100.00;100747.22;5038088;28;20263;-90
2022/09/30 08:41:31;;;;;;;23.52;21.33;;;;;;;10.13;100.00;100746.13;5021656;28;20609;-90
2022/09/30 08:43:57;;;;;;;24.90;22.52;;;;;;;10.19;100.00;100745.00;5037920;28;20208;-89
2022/09/30 08:46:46;;;;;;;23.88;21.67;;;;;;;10.16;100.00;100748.69;5021380;28;20187;-89
2022/09/30 08:49:35;;;;;;;25.10;22.67;;;;;;;10.34;100.00;100751.63;5021868;28;20200;-90
2022/09/30 08:52:04;;;;;;;25.67;23.15;;;;;;;10.40;100.00;100756.75;5022459;28;20184;-90
2022/09/30 08:54:33;;;;;;;25.73;23.15;;;;;;;10.55;100.00;100744.56;5018794;28;20238;-90
2022/09/30 08:57:02;;;;;;;25.85;22.85;;;;;;;10.60;100.00;100750.63;5008142;28;20201;-90
2022/09/30 08:59:36;;;;;;;24.48;22.27;;;;;;;10.62;100.00;100754.97;5002616;28;20220;-90
2022/09/30 09:02:20;;;;;;;22.70;20.65;;;;;;;10.63;100.00;100764.78;5018565;28;20714;-90
2022/09/30 09:04:48;;;;;;;25.17;22.65;;;;;;;10.63;100.00;100759.41;5018784;28;20290;-91
2022/09/30 09:07:48;;;;;;;22.70;20.50;;;;;;;10.61;100.00;100755.06;5002657;28;20180;-90
2022/09/30 09:10:31;;;;;;;22.20;19.85;;;;;;;10.60;100.00;100753.28;5017861;28;20709;-91
2022/09/30 09:13:15;;;;;;;20.63;18.58;;;;;;;10.68;100.00;100751.19;5018625;28;20268;-91
2022/09/30 09:15:56;;;;;;;17.88;16.27;;;;;;;10.72;100.00;100750.13;5021268;28;20181;-91
2022/09/30 09:18:56;;;;;;;18.63;16.60;;;;;;;10.72;100.00;100748.31;5023377;28;20201;-91
2022/09/30 09:21:40;;;;;;;17.25;15.65;;;;;;;10.79;100.00;100753.44;5018831;28;20199;-91
2022/09/30 09:24:14;;;;;;;16.63;15.02;;;;;;;10.77;100.00;100750.81;5018220;28;20200;-91
2022/09/30 09:26:40;;;;;;;17.20;15.50;;;;;;;10.84;100.00;100749.63;5019361;28;20219;-91
2022/09/30 09:29:41;;;;;;;16.58;15.07;;;;;;;10.79;100.00;100767.72;5017559;28;20200;-91
2022/09/30 09:32:13;;;;;;;19.10;14.82;;;;;;;10.73;100.00;100767.94;5001836;28;20549;-90
2022/09/30 09:34:42;;;;;;;16.55;14.90;;;;;;;10.73;100.00;100765.25;5023488;28;20173;-91
2022/09/30 09:37:16;;;;;;;16.27;14.77;;;;;;;10.75;100.00;100760.72;5018181;28;20221;-91
2022/09/30 09:39:54;;;;;;;16.30;14.60;;;;;;;10.88;100.00;100761.97;5018454;28;20267;-91
2022/09/30 09:42:46;;;;;;;15.82;14.18;;;;;;;11.04;100.00;100778.31;5017812;28;20172;-91
2022/09/30 09:45:31;;;;;;;15.63;14.07;;;;;;;11.08;100.00;100773.69;5017633;28;20192;-90
2022/09/30 09:47:56;;;;;;;14.77;13.45;;;;;;;11.12;100.00;100770.81;5017896;28;20211;-90
2022/09/30 09:50:55;;;;;;;15.27;13.50;;;;;;;11.22;100.00;100771.31;5016747;28;20173;-90
2022/09/30 09:53:39;;;;;;;14.55;13.07;;;;;;;11.19;100.00;100762.50;4991651;28;20295;-91
2022/09/30 09:56:17;;;;;;;15.40;12.52;;;;;;;11.31;100.00;100772.75;5016832;28;20173;-91
2022/09/30 09:59:04;;;;;;;14.27;12.77;;;;;;;11.32;100.00;100769.97;5017609;28;20239;-91
2022/09/30 10:01:32;;;;;;;13.00;11.80;;;;;;;11.54;100.00;100769.97;5016454;28;20198;-91
2022/09/30 10:04:14;;;;;;;14.50;11.38;;;;;;;11.45;100.00;100783.75;5016619;28;20201;-91
2022/09/30 10:07:12;;;;;;;11.27;10.10;;;;;;;11.47;100.00;100781.88;5000793;28;20181;-89
2022/09/30 10:09:39;;;;;;;10.45;9.38;;;;;;;11.51;100.00;100772.75;5016508;28;20177;-90
2022/09/30 10:12:05;;;;;;;9.80;8.90;;;;;;;11.66;100.00;100786.47;5022755;28;20177;-90
2022/09/30 10:14:47;;;;;;;9.25;8.13;;;;;;;11.68;100.00;100777.41;5016664;28;20678;-91
2022/09/30 10:17:25;;;;;;;8.95;8.10;;;;;;;11.55;100.00;100776.19;5017094;28;20176;-90
2022/09/30 10:19:56;;;;;;;8.63;7.82;;;;;;;11.58;100.00;100792.13;5016708;28;20275;-91
2022/09/30 10:22:30;;;;;;;8.00;7.20;;;;;;;11.59;100.00;100783.16;5016588;28;20188;-91
2022/09/30 10:25:11;;;;;;;8.10;7.00;;;;;;;11.62;100.00;100784.84;5019601;28;20188;-91
2022/09/30 10:27:53;;;;;;;7.63;6.93;;;;;;;11.78;100.00;100780.53;5019427;28;20688;-91
2022/09/30 10:30:58;;;;;;;8.30;6.57;;;;;;;12.07;100.00;100771.22;5019218;28;20255;-91
2022/09/30 10:33:54;;;;;;;6.60;6.00;;;;;;;12.64;100.00;100763.22;5007462;28;20291;-90
2022/09/30 10:36:44;;;;;;;5.30;4.80;;;;;;;13.13;100.00;100768.88;5014422;28;20188;-91
2022/09/30 10:39:23;;;;;;;6.90;3.92;;;;;;;13.27;100.00;100764.59;5000011;28;20287;-89
2022/09/30 10:41:59;;;;;;;7.85;3.78;;;;;;;13.39;100.00;100761.34;4999628;28;20666;-90
2022/09/30 10:44:26;;;;;;;3.88;3.30;;;;;;;13.86;100.00;100762.50;5005460;28;20227;-89
2022/09/30 10:47:00;;;;;;;3.97;3.17;;;;;;;14.00;100.00;100759.94;5001907;28;20172;-90
2022/09/30 10:49:27;;;;;;;3.13;2.42;;;;;;;13.84;100.00;100764.41;5005408;28;20856;-91
2022/09/30 10:51:55;;;;;;;3.78;3.05;;;;;;;14.21;100.00;100757.91;4998274;28;20184;-89
2022/09/30 10:54:39;;;;;;;3.67;2.42;;;;;;;13.52;100.00;100762.44;5013769;28;20180;-89
2022/09/30 10:57:30;;;;;;;3.80;2.78;;;;;;;13.27;100.00;100756.53;4997264;28;20176;-89
2022/09/30 11:00:00;;;;;;;3.90;2.92;;;;;;;13.41;100.00;100764.81;5002295;28;20185;-89
2022/09/30 11:02:26;;;;;;;3.88;2.90;;;;;;;13.12;100.00;100763.59;4997979;28;20196;-90
2022/09/30 11:05:14;;;;;;;2.90;2.25;;;;;;;13.34;100.00;100745.44;4997950;28;20177;-88
2022/09/30 11:07:58;;;;;;;2.42;2.03;;;;;;;13.33;100.00;100751.75;4999161;28;20274;-90
2022/09/30 11:10:38;;;;;;;3.15;2.65;;;;;;;13.02;100.00;100746.16;5001844;28;20219;-89
2022/09/30 11:13:21;;;;;;;4.65;2.53;;;;;;;13.08;100.00;100752.09;5006817;28;20225;-89
2022/09/30 11:16:16;;;;;;;3.55;2.03;;;;;;;12.96;100.00;100758.94;5015816;28;20569;-89
2022/09/30 11:19:27;;;;;;;7.07;2.60;;;;;;;13.12;100.00;100758.19;4999563;28;20258;-90
2022/09/30 11:22:22;;;;;;;3.90;1.80;;;;;;;13.35;100.00;100759.75;4934831;28;20206;-90
2022/09/30 11:24:50;;;;;;;2.63;2.17;;;;;;;13.74;100.00;100755.94;4999369;28;20203;-90
2022/09/30 11:27:49;;;;;;;1.67;1.58;;;;;;;14.11;98.28;100752.16;5024211;28;20220;-90
2022/09/30 11:30:37;;;;;;;4.15;1.75;;;;;;;14.68;96.14;100748.19;5031841;28;20181;-89
2022/09/30 11:33:51;;;;;;;4.70;1.70;;;;;;;14.93;94.47;100747.63;5009460;28;20199;-90
2022/09/30 11:36:45;;;;;;;3.75;2.40;;;;;;;14.98;92.24;100741.03;4964363;28;20190;-89